sensor_id;sensor_type;location;lat;lon;timestamp;temperature;humidity
78184;DHT22;67442;44.570;18.610;2023-07-02T00:00:17;24.40;64.50
78184;DHT22;67442;44.570;18.610;2023-07-02T00:02:44;24.40;64.50
78184;DHT22;67442;44.570;18.610;2023-07-02T00:05:12;24.40;64.60
78184;DHT22;67442;44.570;18.610;2023-07-02T00:07:39;24.40;64.60
78184;DHT22;67442;44.570;18.610;2023-07-02T00:10:07;24.40;64.60
78184;DHT22;67442;44.570;18.610;2023-07-02T00:12:37;24.40;64.60
78184;DHT22;67442;44.570;18.610;2023-07-02T00:15:06;24.40;64.70
78184;DHT22;67442;44.570;18.610;2023-07-02T00:17:33;24.40;64.70
78184;DHT22;67442;44.570;18.610;2023-07-02T00:20:01;24.50;64.70
78184;DHT22;67442;44.570;18.610;2023-07-02T00:22:35;24.40;64.70
78184;DHT22;67442;44.570;18.610;2023-07-02T00:25:03;24.40;64.70
78184;DHT22;67442;44.570;18.610;2023-07-02T00:27:30;24.40;64.70
78184;DHT22;67442;44.570;18.610;2023-07-02T00:29:58;24.50;64.70
78184;DHT22;67442;44.570;18.610;2023-07-02T00:32:29;24.50;64.80
78184;DHT22;67442;44.570;18.610;2023-07-02T00:34:56;24.40;64.80
78184;DHT22;67442;44.570;18.610;2023-07-02T00:37:25;24.50;64.90
78184;DHT22;67442;44.570;18.610;2023-07-02T00:39:52;24.50;64.90
78184;DHT22;67442;44.570;18.610;2023-07-02T00:42:20;24.50;64.90
78184;DHT22;67442;44.570;18.610;2023-07-02T00:44:49;24.50;65.00
78184;DHT22;67442;44.570;18.610;2023-07-02T00:47:19;24.50;65.00
78184;DHT22;67442;44.570;18.610;2023-07-02T00:49:46;24.50;65.00
78184;DHT22;67442;44.570;18.610;2023-07-02T00:52:13;24.50;64.90
78184;DHT22;67442;44.570;18.610;2023-07-02T00:54:41;24.50;64.90
78184;DHT22;67442;44.570;18.610;2023-07-02T00:57:08;24.50;64.90
78184;DHT22;67442;44.570;18.610;2023-07-02T00:59:40;24.50;64.90
78184;DHT22;67442;44.570;18.610;2023-07-02T01:02:11;24.50;64.90
78184;DHT22;67442;44.570;18.610;2023-07-02T01:04:39;24.50;64.90
78184;DHT22;67442;44.570;18.610;2023-07-02T01:07:06;24.50;64.90
78184;DHT22;67442;44.570;18.610;2023-07-02T01:09:35;24.50;64.90
78184;DHT22;67442;44.570;18.610;2023-07-02T01:12:06;24.50;64.90
78184;DHT22;67442;44.570;18.610;2023-07-02T01:14:38;24.50;64.90
78184;DHT22;67442;44.570;18.610;2023-07-02T01:17:06;24.50;65.00
78184;DHT22;67442;44.570;18.610;2023-07-02T01:19:54;24.50;65.00
78184;DHT22;67442;44.570;18.610;2023-07-02T01:22:26;24.50;64.90
78184;DHT22;67442;44.570;18.610;2023-07-02T01:24:54;24.50;65.00
78184;DHT22;67442;44.570;18.610;2023-07-02T01:27:21;24.50;65.00
78184;DHT22;67442;44.570;18.610;2023-07-02T01:29:52;24.50;65.00
78184;DHT22;67442;44.570;18.610;2023-07-02T01:32:19;24.50;65.00
78184;DHT22;67442;44.570;18.610;2023-07-02T01:34:46;24.50;65.00
78184;DHT22;67442;44.570;18.610;2023-07-02T01:37:19;24.50;65.00
78184;DHT22;67442;44.570;18.610;2023-07-02T01:39:46;24.50;65.00
78184;DHT22;67442;44.570;18.610;2023-07-02T01:42:18;24.50;65.00
78184;DHT22;67442;44.570;18.610;2023-07-02T01:44:49;24.50;65.00
78184;DHT22;67442;44.570;18.610;2023-07-02T01:47:17;24.50;65.00
78184;DHT22;67442;44.570;18.610;2023-07-02T01:49:49;24.50;65.00
78184;DHT22;67442;44.570;18.610;2023-07-02T01:52:16;24.50;65.00
78184;DHT22;67442;44.570;18.610;2023-07-02T01:54:43;24.50;65.00
78184;DHT22;67442;44.570;18.610;2023-07-02T01:57:11;24.50;65.00
78184;DHT22;67442;44.570;18.610;2023-07-02T01:59:38;24.50;65.10
78184;DHT22;67442;44.570;18.610;2023-07-02T02:02:06;24.50;65.20
78184;DHT22;67442;44.570;18.610;2023-07-02T02:04:33;24.50;65.20
78184;DHT22;67442;44.570;18.610;2023-07-02T02:07:00;24.50;65.10
78184;DHT22;67442;44.570;18.610;2023-07-02T02:09:27;24.50;65.20
78184;DHT22;67442;44.570;18.610;2023-07-02T02:11:56;24.50;65.20
78184;DHT22;67442;44.570;18.610;2023-07-02T02:14:24;24.50;65.20
78184;DHT22;67442;44.570;18.610;2023-07-02T02:16:51;24.50;65.20
78184;DHT22;67442;44.570;18.610;2023-07-02T02:19:23;24.50;65.20
78184;DHT22;67442;44.570;18.610;2023-07-02T02:21:54;24.60;65.20
78184;DHT22;67442;44.570;18.610;2023-07-02T02:24:21;24.50;65.20
78184;DHT22;67442;44.570;18.610;2023-07-02T02:26:52;24.60;65.20
78184;DHT22;67442;44.570;18.610;2023-07-02T02:29:19;24.60;65.30
78184;DHT22;67442;44.570;18.610;2023-07-02T02:31:47;24.60;65.30
78184;DHT22;67442;44.570;18.610;2023-07-02T02:34:14;24.60;65.30
78184;DHT22;67442;44.570;18.610;2023-07-02T02:36:41;24.60;65.20
78184;DHT22;67442;44.570;18.610;2023-07-02T02:39:09;24.60;65.30
78184;DHT22;67442;44.570;18.610;2023-07-02T02:41:36;24.60;65.30
78184;DHT22;67442;44.570;18.610;2023-07-02T02:44:04;24.60;65.30
78184;DHT22;67442;44.570;18.610;2023-07-02T02:46:31;24.60;65.30
78184;DHT22;67442;44.570;18.610;2023-07-02T02:48:58;24.60;65.30
78184;DHT22;67442;44.570;18.610;2023-07-02T02:51:25;24.60;65.30
78184;DHT22;67442;44.570;18.610;2023-07-02T02:53:52;24.60;66.10
78184;DHT22;67442;44.570;18.610;2023-07-02T02:56:20;24.60;65.30
78184;DHT22;67442;44.570;18.610;2023-07-02T02:58:47;24.60;65.40
78184;DHT22;67442;44.570;18.610;2023-07-02T03:01:14;24.60;65.40
78184;DHT22;67442;44.570;18.610;2023-07-02T03:03:42;24.60;65.30
78184;DHT22;67442;44.570;18.610;2023-07-02T03:06:14;24.60;65.40
78184;DHT22;67442;44.570;18.610;2023-07-02T03:08:41;24.60;65.40
78184;DHT22;67442;44.570;18.610;2023-07-02T03:11:07;24.60;65.40
78184;DHT22;67442;44.570;18.610;2023-07-02T03:13:35;24.60;65.30
78184;DHT22;67442;44.570;18.610;2023-07-02T03:16:09;24.60;65.40
78184;DHT22;67442;44.570;18.610;2023-07-02T03:18:43;24.60;65.40
78184;DHT22;67442;44.570;18.610;2023-07-02T03:21:10;24.60;65.40
78184;DHT22;67442;44.570;18.610;2023-07-02T03:23:38;24.60;65.40
78184;DHT22;67442;44.570;18.610;2023-07-02T03:26:05;24.60;65.40
78184;DHT22;67442;44.570;18.610;2023-07-02T03:28:36;24.60;65.40
78184;DHT22;67442;44.570;18.610;2023-07-02T03:31:03;24.60;65.40
78184;DHT22;67442;44.570;18.610;2023-07-02T03:33:31;24.60;65.30
78184;DHT22;67442;44.570;18.610;2023-07-02T03:36:02;24.60;65.40
78184;DHT22;67442;44.570;18.610;2023-07-02T03:38:30;24.60;65.40
78184;DHT22;67442;44.570;18.610;2023-07-02T03:40:57;24.60;65.40
78184;DHT22;67442;44.570;18.610;2023-07-02T03:43:24;24.60;65.40
78184;DHT22;67442;44.570;18.610;2023-07-02T03:45:52;24.60;65.40
78184;DHT22;67442;44.570;18.610;2023-07-02T03:48:19;24.60;65.40
78184;DHT22;67442;44.570;18.610;2023-07-02T03:50:46;24.60;65.40
78184;DHT22;67442;44.570;18.610;2023-07-02T03:53:18;24.60;65.40
78184;DHT22;67442;44.570;18.610;2023-07-02T03:55:45;24.60;65.40
78184;DHT22;67442;44.570;18.610;2023-07-02T03:58:12;24.60;65.40
78184;DHT22;67442;44.570;18.610;2023-07-02T04:00:40;24.60;65.40
78184;DHT22;67442;44.570;18.610;2023-07-02T04:03:08;24.60;65.40
78184;DHT22;67442;44.570;18.610;2023-07-02T04:05:35;24.60;65.40
78184;DHT22;67442;44.570;18.610;2023-07-02T04:08:03;24.60;65.40
78184;DHT22;67442;44.570;18.610;2023-07-02T04:10:34;24.60;65.40
78184;DHT22;67442;44.570;18.610;2023-07-02T04:13:01;24.60;65.40
78184;DHT22;67442;44.570;18.610;2023-07-02T04:15:29;24.60;65.40
78184;DHT22;67442;44.570;18.610;2023-07-02T04:17:57;24.60;65.40
78184;DHT22;67442;44.570;18.610;2023-07-02T04:20:24;24.60;65.50
78184;DHT22;67442;44.570;18.610;2023-07-02T04:22:52;24.70;65.60
78184;DHT22;67442;44.570;18.610;2023-07-02T04:25:19;24.60;65.50
78184;DHT22;67442;44.570;18.610;2023-07-02T04:27:46;24.60;65.50
78184;DHT22;67442;44.570;18.610;2023-07-02T04:30:13;24.60;65.50
78184;DHT22;67442;44.570;18.610;2023-07-02T04:32:41;24.70;65.60
78184;DHT22;67442;44.570;18.610;2023-07-02T04:35:08;24.60;65.60
78184;DHT22;67442;44.570;18.610;2023-07-02T04:37:36;24.60;65.60
78184;DHT22;67442;44.570;18.610;2023-07-02T04:40:02;24.70;65.70
78184;DHT22;67442;44.570;18.610;2023-07-02T04:42:33;24.70;65.60
78184;DHT22;67442;44.570;18.610;2023-07-02T04:45:05;24.70;65.70
78184;DHT22;67442;44.570;18.610;2023-07-02T04:47:34;24.60;65.60
78184;DHT22;67442;44.570;18.610;2023-07-02T04:50:02;24.70;65.70
78184;DHT22;67442;44.570;18.610;2023-07-02T04:52:29;24.70;65.70
78184;DHT22;67442;44.570;18.610;2023-07-02T04:54:57;24.70;65.80
78184;DHT22;67442;44.570;18.610;2023-07-02T04:57:24;24.70;65.80
78184;DHT22;67442;44.570;18.610;2023-07-02T04:59:55;24.70;65.80
78184;DHT22;67442;44.570;18.610;2023-07-02T05:02:22;24.60;65.80
78184;DHT22;67442;44.570;18.610;2023-07-02T05:04:48;24.60;65.70
78184;DHT22;67442;44.570;18.610;2023-07-02T05:07:16;24.70;65.80
78184;DHT22;67442;44.570;18.610;2023-07-02T05:09:43;24.70;65.90
78184;DHT22;67442;44.570;18.610;2023-07-02T05:12:10;24.70;65.90
78184;DHT22;67442;44.570;18.610;2023-07-02T05:14:38;24.60;65.80
78184;DHT22;67442;44.570;18.610;2023-07-02T05:17:05;24.70;65.90
78184;DHT22;67442;44.570;18.610;2023-07-02T05:19:32;24.70;65.90
78184;DHT22;67442;44.570;18.610;2023-07-02T05:21:59;24.70;65.90
78184;DHT22;67442;44.570;18.610;2023-07-02T05:24:26;24.70;65.90
78184;DHT22;67442;44.570;18.610;2023-07-02T05:26:53;24.70;65.90
78184;DHT22;67442;44.570;18.610;2023-07-02T05:29:20;24.70;66.00
78184;DHT22;67442;44.570;18.610;2023-07-02T05:31:48;24.70;66.00
78184;DHT22;67442;44.570;18.610;2023-07-02T05:34:15;24.70;65.90
78184;DHT22;67442;44.570;18.610;2023-07-02T05:36:42;24.70;66.00
78184;DHT22;67442;44.570;18.610;2023-07-02T05:39:09;24.70;66.00
78184;DHT22;67442;44.570;18.610;2023-07-02T05:41:36;24.70;66.00
78184;DHT22;67442;44.570;18.610;2023-07-02T05:44:03;24.70;66.00
78184;DHT22;67442;44.570;18.610;2023-07-02T05:46:31;24.70;66.00
78184;DHT22;67442;44.570;18.610;2023-07-02T05:48:57;24.70;66.10
78184;DHT22;67442;44.570;18.610;2023-07-02T05:51:24;24.70;66.10
78184;DHT22;67442;44.570;18.610;2023-07-02T05:53:52;24.70;66.10
78184;DHT22;67442;44.570;18.610;2023-07-02T05:56:18;24.70;66.10
78184;DHT22;67442;44.570;18.610;2023-07-02T05:58:48;24.70;66.10
78184;DHT22;67442;44.570;18.610;2023-07-02T06:01:16;24.70;66.20
78184;DHT22;67442;44.570;18.610;2023-07-02T06:03:43;24.70;66.20
78184;DHT22;67442;44.570;18.610;2023-07-02T06:06:11;24.70;66.20
78184;DHT22;67442;44.570;18.610;2023-07-02T06:08:39;24.70;66.20
78184;DHT22;67442;44.570;18.610;2023-07-02T06:11:06;24.70;66.20
78184;DHT22;67442;44.570;18.610;2023-07-02T06:13:33;24.70;66.30
78184;DHT22;67442;44.570;18.610;2023-07-02T06:16:04;24.70;66.30
78184;DHT22;67442;44.570;18.610;2023-07-02T06:18:32;24.70;66.30
78184;DHT22;67442;44.570;18.610;2023-07-02T06:20:59;24.70;66.30
78184;DHT22;67442;44.570;18.610;2023-07-02T06:23:25;24.80;66.30
78184;DHT22;67442;44.570;18.610;2023-07-02T06:25:53;24.80;66.30
78184;DHT22;67442;44.570;18.610;2023-07-02T06:28:26;24.80;66.40
78184;DHT22;67442;44.570;18.610;2023-07-02T06:30:54;24.80;66.40
78184;DHT22;67442;44.570;18.610;2023-07-02T06:33:21;24.70;66.30
78184;DHT22;67442;44.570;18.610;2023-07-02T06:35:49;24.80;66.40
78184;DHT22;67442;44.570;18.610;2023-07-02T06:38:16;24.70;66.30
78184;DHT22;67442;44.570;18.610;2023-07-02T06:40:43;24.80;66.40
78184;DHT22;67442;44.570;18.610;2023-07-02T06:43:10;24.70;67.20
78184;DHT22;67442;44.570;18.610;2023-07-02T06:45:38;24.80;66.40
78184;DHT22;67442;44.570;18.610;2023-07-02T06:48:06;24.80;66.40
78184;DHT22;67442;44.570;18.610;2023-07-02T06:50:37;24.80;66.50
78184;DHT22;67442;44.570;18.610;2023-07-02T06:53:08;24.80;66.40
78184;DHT22;67442;44.570;18.610;2023-07-02T06:55:35;24.80;66.40
78184;DHT22;67442;44.570;18.610;2023-07-02T06:58:04;24.80;66.50
78184;DHT22;67442;44.570;18.610;2023-07-02T07:00:35;24.80;66.50
78184;DHT22;67442;44.570;18.610;2023-07-02T07:03:03;24.80;66.60
78184;DHT22;67442;44.570;18.610;2023-07-02T07:05:31;24.80;66.60
78184;DHT22;67442;44.570;18.610;2023-07-02T07:10:25;24.80;66.60
78184;DHT22;67442;44.570;18.610;2023-07-02T07:12:52;24.80;66.60
78184;DHT22;67442;44.570;18.610;2023-07-02T07:15:20;24.80;66.70
78184;DHT22;67442;44.570;18.610;2023-07-02T07:17:47;24.80;66.70
78184;DHT22;67442;44.570;18.610;2023-07-02T07:20:15;24.80;66.70
78184;DHT22;67442;44.570;18.610;2023-07-02T07:22:42;24.80;66.70
78184;DHT22;67442;44.570;18.610;2023-07-02T07:25:14;24.80;66.70
78184;DHT22;67442;44.570;18.610;2023-07-02T07:27:45;24.80;66.80
78184;DHT22;67442;44.570;18.610;2023-07-02T07:30:16;24.80;66.90
78184;DHT22;67442;44.570;18.610;2023-07-02T07:32:51;24.80;66.90
78184;DHT22;67442;44.570;18.610;2023-07-02T07:35:20;24.80;66.70
78184;DHT22;67442;44.570;18.610;2023-07-02T07:37:52;24.80;67.00
78184;DHT22;67442;44.570;18.610;2023-07-02T07:40:23;24.80;67.10
78184;DHT22;67442;44.570;18.610;2023-07-02T07:42:50;24.80;67.00
78184;DHT22;67442;44.570;18.610;2023-07-02T07:45:18;24.80;67.30
78184;DHT22;67442;44.570;18.610;2023-07-02T07:47:45;24.80;67.30
78184;DHT22;67442;44.570;18.610;2023-07-02T07:50:15;24.80;67.10
78184;DHT22;67442;44.570;18.610;2023-07-02T07:52:43;24.80;67.10
78184;DHT22;67442;44.570;18.610;2023-07-02T07:55:10;24.80;67.20
78184;DHT22;67442;44.570;18.610;2023-07-02T07:57:41;24.80;67.30
78184;DHT22;67442;44.570;18.610;2023-07-02T08:00:13;24.80;67.40
78184;DHT22;67442;44.570;18.610;2023-07-02T08:02:46;24.80;67.60
78184;DHT22;67442;44.570;18.610;2023-07-02T08:05:13;24.80;67.50
78184;DHT22;67442;44.570;18.610;2023-07-02T08:07:40;24.80;67.40
78184;DHT22;67442;44.570;18.610;2023-07-02T08:10:07;24.80;67.60
78184;DHT22;67442;44.570;18.610;2023-07-02T08:12:34;24.80;67.50
78184;DHT22;67442;44.570;18.610;2023-07-02T08:15:01;24.80;67.70
78184;DHT22;67442;44.570;18.610;2023-07-02T08:21:13;24.80;67.80
78184;DHT22;67442;44.570;18.610;2023-07-02T08:23:43;24.80;68.10
78184;DHT22;67442;44.570;18.610;2023-07-02T08:26:14;24.80;68.20
78184;DHT22;67442;44.570;18.610;2023-07-02T08:28:45;24.80;68.00
78184;DHT22;67442;44.570;18.610;2023-07-02T08:31:17;24.80;68.30
78184;DHT22;67442;44.570;18.610;2023-07-02T08:33:48;24.80;68.70
78184;DHT22;67442;44.570;18.610;2023-07-02T08:36:19;24.80;68.50
78184;DHT22;67442;44.570;18.610;2023-07-02T08:38:51;24.80;68.40
78184;DHT22;67442;44.570;18.610;2023-07-02T08:41:21;24.80;68.10
78184;DHT22;67442;44.570;18.610;2023-07-02T08:43:50;24.80;67.80
78184;DHT22;67442;44.570;18.610;2023-07-02T08:46:19;24.80;67.60
78184;DHT22;67442;44.570;18.610;2023-07-02T08:49:08;24.80;68.00
78184;DHT22;67442;44.570;18.610;2023-07-02T08:51:40;24.80;68.10
78184;DHT22;67442;44.570;18.610;2023-07-02T08:54:11;24.80;68.10
78184;DHT22;67442;44.570;18.610;2023-07-02T08:56:56;24.80;67.90
78184;DHT22;67442;44.570;18.610;2023-07-02T08:59:23;24.80;67.80
78184;DHT22;67442;44.570;18.610;2023-07-02T09:01:52;24.80;68.00
78184;DHT22;67442;44.570;18.610;2023-07-02T09:04:23;24.80;68.20
78184;DHT22;67442;44.570;18.610;2023-07-02T09:07:08;24.80;68.30
78184;DHT22;67442;44.570;18.610;2023-07-02T09:09:48;24.80;68.40
78184;DHT22;67442;44.570;18.610;2023-07-02T09:12:28;24.80;68.10
78184;DHT22;67442;44.570;18.610;2023-07-02T09:15:03;24.80;67.70
78184;DHT22;67442;44.570;18.610;2023-07-02T09:17:36;24.80;67.50
78184;DHT22;67442;44.570;18.610;2023-07-02T09:20:05;24.80;67.40
78184;DHT22;67442;44.570;18.610;2023-07-02T09:22:35;24.80;67.40
78184;DHT22;67442;44.570;18.610;2023-07-02T09:25:03;24.80;67.40
78184;DHT22;67442;44.570;18.610;2023-07-02T09:27:40;24.80;67.70
78184;DHT22;67442;44.570;18.610;2023-07-02T09:30:12;24.80;67.60
78184;DHT22;67442;44.570;18.610;2023-07-02T09:32:40;24.80;67.70
78184;DHT22;67442;44.570;18.610;2023-07-02T09:35:08;24.80;67.70
78184;DHT22;67442;44.570;18.610;2023-07-02T09:37:42;24.90;67.70
78184;DHT22;67442;44.570;18.610;2023-07-02T09:40:10;24.80;67.70
78184;DHT22;67442;44.570;18.610;2023-07-02T09:42:39;24.90;67.70
78184;DHT22;67442;44.570;18.610;2023-07-02T09:45:10;24.90;67.60
78184;DHT22;67442;44.570;18.610;2023-07-02T09:47:42;24.90;67.60
78184;DHT22;67442;44.570;18.610;2023-07-02T09:50:11;24.90;67.50
78184;DHT22;67442;44.570;18.610;2023-07-02T09:52:38;24.90;67.50
78184;DHT22;67442;44.570;18.610;2023-07-02T09:55:06;24.90;67.40
78184;DHT22;67442;44.570;18.610;2023-07-02T09:57:39;24.90;68.20
78184;DHT22;67442;44.570;18.610;2023-07-02T10:00:08;24.90;67.40
78184;DHT22;67442;44.570;18.610;2023-07-02T10:02:37;24.90;67.40
78184;DHT22;67442;44.570;18.610;2023-07-02T10:05:04;24.90;67.40
78184;DHT22;67442;44.570;18.610;2023-07-02T10:07:32;24.90;67.30
78184;DHT22;67442;44.570;18.610;2023-07-02T10:09:59;24.90;67.40
78184;DHT22;67442;44.570;18.610;2023-07-02T10:12:30;24.90;67.30
78184;DHT22;67442;44.570;18.610;2023-07-02T10:15:01;24.90;67.30
78184;DHT22;67442;44.570;18.610;2023-07-02T10:17:32;24.90;67.30
78184;DHT22;67442;44.570;18.610;2023-07-02T10:20:06;24.90;67.30
78184;DHT22;67442;44.570;18.610;2023-07-02T10:22:46;24.90;67.30
78184;DHT22;67442;44.570;18.610;2023-07-02T10:25:30;24.90;67.20
78184;DHT22;67442;44.570;18.610;2023-07-02T10:28:14;24.90;67.20
78184;DHT22;67442;44.570;18.610;2023-07-02T10:30:42;24.90;67.20
78184;DHT22;67442;44.570;18.610;2023-07-02T10:33:12;24.90;67.10
78184;DHT22;67442;44.570;18.610;2023-07-02T10:35:40;24.90;67.10
78184;DHT22;67442;44.570;18.610;2023-07-02T10:38:22;24.90;67.10
78184;DHT22;67442;44.570;18.610;2023-07-02T10:40:57;24.90;67.10
78184;DHT22;67442;44.570;18.610;2023-07-02T10:43:30;24.90;67.10
78184;DHT22;67442;44.570;18.610;2023-07-02T10:46:01;24.90;67.10
78184;DHT22;67442;44.570;18.610;2023-07-02T10:48:31;24.90;67.10
78184;DHT22;67442;44.570;18.610;2023-07-02T10:50:58;24.90;67.10
78184;DHT22;67442;44.570;18.610;2023-07-02T10:53:25;24.90;67.00
78184;DHT22;67442;44.570;18.610;2023-07-02T10:55:57;24.90;67.00
78184;DHT22;67442;44.570;18.610;2023-07-02T10:58:24;24.90;67.00
78184;DHT22;67442;44.570;18.610;2023-07-02T11:00:51;24.90;67.00
78184;DHT22;67442;44.570;18.610;2023-07-02T11:03:37;24.90;67.00
78184;DHT22;67442;44.570;18.610;2023-07-02T11:06:05;24.90;67.00
78184;DHT22;67442;44.570;18.610;2023-07-02T11:08:36;24.90;67.00
78184;DHT22;67442;44.570;18.610;2023-07-02T11:11:10;24.90;67.00
78184;DHT22;67442;44.570;18.610;2023-07-02T11:13:47;24.90;67.00
78184;DHT22;67442;44.570;18.610;2023-07-02T11:16:28;24.90;67.00
78184;DHT22;67442;44.570;18.610;2023-07-02T11:19:15;25.00;67.00
78184;DHT22;67442;44.570;18.610;2023-07-02T11:21:51;24.90;67.00
78184;DHT22;67442;44.570;18.610;2023-07-02T11:24:34;24.90;67.00
78184;DHT22;67442;44.570;18.610;2023-07-02T11:27:02;24.90;66.90
78184;DHT22;67442;44.570;18.610;2023-07-02T11:29:29;24.90;67.00
78184;DHT22;67442;44.570;18.610;2023-07-02T11:32:07;24.90;66.90
78184;DHT22;67442;44.570;18.610;2023-07-02T11:34:41;24.90;66.90
78184;DHT22;67442;44.570;18.610;2023-07-02T11:37:08;24.90;66.90
78184;DHT22;67442;44.570;18.610;2023-07-02T11:39:35;24.90;66.90
78184;DHT22;67442;44.570;18.610;2023-07-02T11:42:06;24.90;66.90
78184;DHT22;67442;44.570;18.610;2023-07-02T11:44:37;24.90;66.90
78184;DHT22;67442;44.570;18.610;2023-07-02T11:47:05;24.90;66.90
78184;DHT22;67442;44.570;18.610;2023-07-02T11:49:33;24.90;66.90
78184;DHT22;67442;44.570;18.610;2023-07-02T11:52:00;24.90;66.90
78184;DHT22;67442;44.570;18.610;2023-07-02T11:54:27;24.90;66.90
78184;DHT22;67442;44.570;18.610;2023-07-02T11:56:55;25.00;66.90
78184;DHT22;67442;44.570;18.610;2023-07-02T11:59:26;25.00;67.00
78184;DHT22;67442;44.570;18.610;2023-07-02T12:01:53;24.90;66.90
78184;DHT22;67442;44.570;18.610;2023-07-02T12:04:20;25.00;67.00
78184;DHT22;67442;44.570;18.610;2023-07-02T12:06:48;25.00;66.90
78184;DHT22;67442;44.570;18.610;2023-07-02T12:09:15;25.00;66.90
78184;DHT22;67442;44.570;18.610;2023-07-02T12:11:42;25.00;67.10
78184;DHT22;67442;44.570;18.610;2023-07-02T12:14:11;25.00;66.90
78184;DHT22;67442;44.570;18.610;2023-07-02T12:16:42;24.90;66.80
78184;DHT22;67442;44.570;18.610;2023-07-02T12:19:14;24.90;66.80
78184;DHT22;67442;44.570;18.610;2023-07-02T12:21:41;25.00;66.90
78184;DHT22;67442;44.570;18.610;2023-07-02T12:24:09;24.90;66.80
78184;DHT22;67442;44.570;18.610;2023-07-02T12:26:40;25.00;66.90
78184;DHT22;67442;44.570;18.610;2023-07-02T12:29:07;25.00;66.90
78184;DHT22;67442;44.570;18.610;2023-07-02T12:31:35;25.00;66.90
78184;DHT22;67442;44.570;18.610;2023-07-02T12:34:06;25.00;66.90
78184;DHT22;67442;44.570;18.610;2023-07-02T12:36:33;25.00;66.90
78184;DHT22;67442;44.570;18.610;2023-07-02T12:39:00;25.00;66.90
78184;DHT22;67442;44.570;18.610;2023-07-02T12:41:32;25.00;66.90
78184;DHT22;67442;44.570;18.610;2023-07-02T12:43:59;25.00;66.80
78184;DHT22;67442;44.570;18.610;2023-07-02T12:46:27;25.00;66.90
78184;DHT22;67442;44.570;18.610;2023-07-02T12:48:58;25.00;66.90
78184;DHT22;67442;44.570;18.610;2023-07-02T12:51:25;24.90;66.70
78184;DHT22;67442;44.570;18.610;2023-07-02T12:53:52;25.00;66.80
78184;DHT22;67442;44.570;18.610;2023-07-02T12:56:19;25.00;66.90
78184;DHT22;67442;44.570;18.610;2023-07-02T12:58:47;25.00;66.80
78184;DHT22;67442;44.570;18.610;2023-07-02T13:01:19;25.00;66.80
78184;DHT22;67442;44.570;18.610;2023-07-02T13:03:50;25.00;66.80
78184;DHT22;67442;44.570;18.610;2023-07-02T13:06:21;25.00;66.80
78184;DHT22;67442;44.570;18.610;2023-07-02T13:08:48;25.00;67.70
78184;DHT22;67442;44.570;18.610;2023-07-02T13:11:16;25.00;66.80
78184;DHT22;67442;44.570;18.610;2023-07-02T13:13:43;25.00;66.70
78184;DHT22;67442;44.570;18.610;2023-07-02T13:16:10;25.00;66.70
78184;DHT22;67442;44.570;18.610;2023-07-02T13:18:37;25.00;66.80
78184;DHT22;67442;44.570;18.610;2023-07-02T13:21:05;25.00;66.70
78184;DHT22;67442;44.570;18.610;2023-07-02T13:23:36;25.00;66.70
78184;DHT22;67442;44.570;18.610;2023-07-02T13:26:03;25.00;66.80
78184;DHT22;67442;44.570;18.610;2023-07-02T13:28:30;25.00;66.70
78184;DHT22;67442;44.570;18.610;2023-07-02T13:30:58;25.00;66.70
78184;DHT22;67442;44.570;18.610;2023-07-02T13:33:25;25.00;66.70
78184;DHT22;67442;44.570;18.610;2023-07-02T13:35:55;25.00;66.70
78184;DHT22;67442;44.570;18.610;2023-07-02T13:38:22;25.00;66.80
78184;DHT22;67442;44.570;18.610;2023-07-02T13:40:50;25.00;66.70
78184;DHT22;67442;44.570;18.610;2023-07-02T13:43:17;25.00;66.70
78184;DHT22;67442;44.570;18.610;2023-07-02T13:45:45;25.00;66.70
78184;DHT22;67442;44.570;18.610;2023-07-02T13:48:12;25.00;66.70
78184;DHT22;67442;44.570;18.610;2023-07-02T13:50:39;25.00;66.70
78184;DHT22;67442;44.570;18.610;2023-07-02T13:53:07;25.00;66.80
78184;DHT22;67442;44.570;18.610;2023-07-02T13:55:39;25.00;66.70
78184;DHT22;67442;44.570;18.610;2023-07-02T13:58:06;25.00;66.70
78184;DHT22;67442;44.570;18.610;2023-07-02T14:00:37;25.00;66.70
78184;DHT22;67442;44.570;18.610;2023-07-02T14:03:05;25.00;66.70
78184;DHT22;67442;44.570;18.610;2023-07-02T14:05:32;25.00;66.70
78184;DHT22;67442;44.570;18.610;2023-07-02T14:08:04;25.00;66.70
78184;DHT22;67442;44.570;18.610;2023-07-02T14:10:35;25.00;66.70
78184;DHT22;67442;44.570;18.610;2023-07-02T14:13:02;25.00;66.70
78184;DHT22;67442;44.570;18.610;2023-07-02T14:15:29;25.00;66.70
78184;DHT22;67442;44.570;18.610;2023-07-02T14:17:56;25.00;66.70
78184;DHT22;67442;44.570;18.610;2023-07-02T14:20:23;25.00;66.70
78184;DHT22;67442;44.570;18.610;2023-07-02T14:22:55;25.00;66.70
78184;DHT22;67442;44.570;18.610;2023-07-02T14:25:25;25.00;66.70
78184;DHT22;67442;44.570;18.610;2023-07-02T14:27:57;25.00;66.70
78184;DHT22;67442;44.570;18.610;2023-07-02T14:30:23;25.00;66.70
78184;DHT22;67442;44.570;18.610;2023-07-02T14:32:51;25.00;66.70
78184;DHT22;67442;44.570;18.610;2023-07-02T14:35:18;25.00;66.70
78184;DHT22;67442;44.570;18.610;2023-07-02T14:37:48;25.00;66.70
78184;DHT22;67442;44.570;18.610;2023-07-02T14:40:15;25.00;66.70
78184;DHT22;67442;44.570;18.610;2023-07-02T14:42:43;25.00;66.70
78184;DHT22;67442;44.570;18.610;2023-07-02T14:45:10;25.00;66.70
78184;DHT22;67442;44.570;18.610;2023-07-02T14:47:38;25.00;66.70
78184;DHT22;67442;44.570;18.610;2023-07-02T14:50:06;25.00;66.70
78184;DHT22;67442;44.570;18.610;2023-07-02T14:52:33;25.10;66.70
78184;DHT22;67442;44.570;18.610;2023-07-02T14:55:00;25.00;66.70
78184;DHT22;67442;44.570;18.610;2023-07-02T14:57:27;25.00;66.70
78184;DHT22;67442;44.570;18.610;2023-07-02T14:59:54;25.00;66.70
78184;DHT22;67442;44.570;18.610;2023-07-02T15:02:21;25.00;66.70
78184;DHT22;67442;44.570;18.610;2023-07-02T15:04:48;25.00;66.70
78184;DHT22;67442;44.570;18.610;2023-07-02T15:07:16;25.10;66.70
78184;DHT22;67442;44.570;18.610;2023-07-02T15:09:42;25.10;66.70
78184;DHT22;67442;44.570;18.610;2023-07-02T15:12:10;25.10;66.70
78184;DHT22;67442;44.570;18.610;2023-07-02T15:14:37;25.00;66.70
78184;DHT22;67442;44.570;18.610;2023-07-02T15:17:09;25.10;66.80
78184;DHT22;67442;44.570;18.610;2023-07-02T15:19:36;25.00;66.70
78184;DHT22;67442;44.570;18.610;2023-07-02T15:22:05;25.00;67.40
78184;DHT22;67442;44.570;18.610;2023-07-02T15:24:35;25.10;66.70
78184;DHT22;67442;44.570;18.610;2023-07-02T15:27:14;25.10;66.70
78184;DHT22;67442;44.570;18.610;2023-07-02T15:29:41;25.10;66.70
78184;DHT22;67442;44.570;18.610;2023-07-02T15:32:12;25.10;66.70